Mc Connell Air Force Base Wichita US
ICAO: KIAB
IATA: IAB
Category: Medium
Scheduled Services: No

Elevation: 1371 ft
TransAlt. 18000 ft.

Airport Communications:
KS ANG OPS:30.16
WICHITA APP:120.6
ATIS:124.65
WICHITA DEP:120.6
GND:118
PMSV METRO:37.52
COMD POST:31.1
PTD:37.22
BOEING GND:123.125
TWR:127.25

KIAB Zoom In..

If you have problems with the map follow the link
https://www.worldairports.se/pages/airport.php?
ICAO=KIAB

Runways:

(A) RW 01L length 12000 ft width 150 ft
ILS 111.10 / hdg 8

(B) RW 01R length 12000 ft width 150 ft
---- / hdg 8

(C) RW 19L length 12000 ft width 150 ft
---- / hdg 188

(D) RW 19R length 12000 ft width 150 ft
ILS 109.90 / hdg 188

Location; KIAB
Day. 22 / Time. 13.41 Zulu
* Altimeter: 29.93
* Temperature: 01° c. 33.8°f.
* Wind from: 170° Speed 15 kn with Gusts up to 22 kn.
Dewpoint: 01° c.
Visibility: 7 Statute Miles.
Clouds: Overcast 600 ft.
Conditions: Light Snow.

KIAB 221341Z AUTO 17015G22KT 7SM -SN OVC006 01/01 A2993 RMK AO2 SLP148 $


Wind From 170°
Speed 15 kn.

 
 
jpsmedia worldairports.se 2020   terms of use